Time;durP1;ratioP1;P1;durP2;ratioP2;P2;SDS_P1;SDS_P2;PMS_P1;PMS_P2;Temp;Humidity;BMP_temperature;BMP_pressure;BME280_temperature;BME280_humidity;BME280_pressure;Samples;Min_cycle;Max_cycle;Signal;HPM_P1;HPM_P2
2024/02/16 00:00:10;;;;;;;9.4;4.85;;;;;;;6.48;77.00781;95206.01;;;;
2024/02/16 00:01:13;;;;;;;9.4;4.85;;;;;;;6.48;77.00781;95206.01;;;;
2024/02/16 00:02:15;;;;;;;9.4;4.85;;;;;;;6.48;77.00781;95206.01;;;;
2024/02/16 00:03:15;;;;;;;9.4;4.85;;;;;;;6.48;77.00781;95206.01;;;;
2024/02/16 00:04:16;;;;;;;9.4;4.85;;;;;;;6.48;77.00781;95206.01;;;;
2024/02/16 00:05:16;;;;;;;7.8;4.349999;;;;;;;6.26;77.11621;95193.38;;;;
2024/02/16 00:06:18;;;;;;;7.8;4.349999;;;;;;;6.26;77.11621;95193.38;;;;
2024/02/16 00:07:18;;;;;;;7.8;4.349999;;;;;;;6.26;77.11621;95193.38;;;;
2024/02/16 00:08:19;;;;;;;7.8;4.349999;;;;;;;6.26;77.11621;95193.38;;;;
2024/02/16 00:09:20;;;;;;;7.8;4.349999;;;;;;;6.26;77.11621;95193.38;;;;
2024/02/16 00:10:21;;;;;;;7.8;4.349999;;;;;;;6.26;77.11621;95193.38;;;;
2024/02/16 00:11:23;;;;;;;7.8;4.349999;;;;;;;6.26;77.11621;95193.38;;;;
2024/02/16 00:12:23;;;;;;;7.8;4.349999;;;;;;;6.26;77.11621;95193.38;;;;
2024/02/16 00:13:24;;;;;;;7.8;4.349999;;;;;;;6.26;77.11621;95193.38;;;;
2024/02/16 00:14:24;;;;;;;7.8;4.349999;;;;;;;6.26;77.11621;95193.38;;;;
2024/02/16 00:15:24;;;;;;;6;4.2;;;;;;;6.05;77.56934;95185.91;;;;
2024/02/16 00:16:25;;;;;;;6;4.2;;;;;;;6.05;77.56934;95185.91;;;;
2024/02/16 00:17:26;;;;;;;6;4.2;;;;;;;6.05;77.56934;95185.91;;;;
2024/02/16 00:18:27;;;;;;;6;4.2;;;;;;;6.05;77.56934;95185.91;;;;
2024/02/16 00:19:27;;;;;;;6;4.2;;;;;;;6.05;77.56934;95185.91;;;;
2024/02/16 00:20:28;;;;;;;6;4.2;;;;;;;6.05;77.56934;95185.91;;;;
2024/02/16 00:21:29;;;;;;;6;4.2;;;;;;;6.05;77.56934;95185.91;;;;
2024/02/16 00:22:29;;;;;;;6;4.2;;;;;;;6.05;77.56934;95185.91;;;;
2024/02/16 00:23:30;;;;;;;6;4.2;;;;;;;6.05;77.56934;95185.91;;;;
2024/02/16 00:24:31;;;;;;;6;4.2;;;;;;;6.05;77.56934;95185.91;;;;
2024/02/16 00:25:32;;;;;;;6;4.2;;;;;;;6.05;77.56934;95185.91;;;;
2024/02/16 00:26:32;;;;;;;4.5;3.5;;;;;;;6.05;77.77148;95181.16;;;;
2024/02/16 00:27:33;;;;;;;4.5;3.5;;;;;;;6.05;77.77148;95181.16;;;;
2024/02/16 00:28:33;;;;;;;4.5;3.5;;;;;;;6.05;77.77148;95181.16;;;;
2024/02/16 00:29:33;;;;;;;4.5;3.5;;;;;;;6.05;77.77148;95181.16;;;;
2024/02/16 00:30:36;;;;;;;4.5;3.5;;;;;;;6.05;77.77148;95181.16;;;;
2024/02/16 00:31:36;;;;;;;4.5;3.5;;;;;;;6.05;77.77148;95181.16;;;;
2024/02/16 00:32:37;;;;;;;4.5;3.5;;;;;;;6.05;77.77148;95181.16;;;;
2024/02/16 00:33:37;;;;;;;4.5;3.5;;;;;;;6.05;77.77148;95181.16;;;;
2024/02/16 00:34:39;;;;;;;4.5;3.5;;;;;;;6.05;77.77148;95181.16;;;;
2024/02/16 00:35:39;;;;;;;4.5;3.5;;;;;;;6.05;77.77148;95181.16;;;;
2024/02/16 00:36:40;;;;;;;5;3.750001;;;;;;;6.03;77.89551;95165.6;;;;
2024/02/16 00:37:40;;;;;;;5;3.750001;;;;;;;6.03;77.89551;95165.6;;;;
2024/02/16 00:38:41;;;;;;;5;3.750001;;;;;;;6.03;77.89551;95165.6;;;;
2024/02/16 00:39:41;;;;;;;5;3.750001;;;;;;;6.03;77.89551;95165.6;;;;
2024/02/16 00:40:43;;;;;;;5;3.750001;;;;;;;6.03;77.89551;95165.6;;;;
2024/02/16 00:41:46;;;;;;;5;3.750001;;;;;;;6.03;77.89551;95165.6;;;;
2024/02/16 00:42:46;;;;;;;5;3.750001;;;;;;;6.03;77.89551;95165.6;;;;
2024/02/16 00:43:47;;;;;;;5;3.750001;;;;;;;6.03;77.89551;95165.6;;;;
2024/02/16 00:44:47;;;;;;;5;3.750001;;;;;;;6.03;77.89551;95165.6;;;;
2024/02/16 00:45:48;;;;;;;5;3.750001;;;;;;;6.03;77.89551;95165.6;;;;
2024/02/16 00:46:48;;;;;;;5;3.750001;;;;;;;6.03;77.89551;95165.6;;;;
2024/02/16 00:47:49;;;;;;;5.75;4;;;;;;;6.11;77.8252;95167.21;;;;
2024/02/16 00:48:49;;;;;;;5.75;4;;;;;;;6.11;77.8252;95167.21;;;;
2024/02/16 00:49:50;;;;;;;5.75;4;;;;;;;6.11;77.8252;95167.21;;;;
2024/02/16 00:50:50;;;;;;;5.75;4;;;;;;;6.11;77.8252;95167.21;;;;
2024/02/16 00:51:51;;;;;;;5.75;4;;;;;;;6.11;77.8252;95167.21;;;;
2024/02/16 00:52:51;;;;;;;5.75;4;;;;;;;6.11;77.8252;95167.21;;;;
2024/02/16 00:53:52;;;;;;;5.75;4;;;;;;;6.11;77.8252;95167.21;;;;
2024/02/16 00:54:53;;;;;;;5.75;4;;;;;;;6.11;77.8252;95167.21;;;;
2024/02/16 00:55:53;;;;;;;5.75;4;;;;;;;6.11;77.8252;95167.21;;;;
2024/02/16 00:56:54;;;;;;;5.75;4;;;;;;;6.11;77.8252;95167.21;;;;
2024/02/16 00:57:55;;;;;;;5.75;4;;;;;;;6.11;77.8252;95167.21;;;;
2024/02/16 00:58:56;;;;;;;6;4.25;;;;;;;6.15;78.22559;95169.86;;;;
2024/02/16 00:59:56;;;;;;;6;4.25;;;;;;;6.15;78.22559;95169.86;;;;
2024/02/16 01:00:57;;;;;;;6;4.25;;;;;;;6.15;78.22559;95169.86;;;;
2024/02/16 01:01:57;;;;;;;6;4.25;;;;;;;6.15;78.22559;95169.86;;;;
2024/02/16 01:02:58;;;;;;;6;4.25;;;;;;;6.15;78.22559;95169.86;;;;
2024/02/16 01:03:58;;;;;;;6;4.25;;;;;;;6.15;78.22559;95169.86;;;;
2024/02/16 01:05:01;;;;;;;6;4.25;;;;;;;6.15;78.22559;95169.86;;;;
2024/02/16 01:06:02;;;;;;;6;4.25;;;;;;;6.15;78.22559;95169.86;;;;
2024/02/16 01:07:03;;;;;;;6;4.25;;;;;;;6.15;78.22559;95169.86;;;;
2024/02/16 01:08:03;;;;;;;6;4.25;;;;;;;6.15;78.22559;95169.86;;;;
2024/02/16 01:09:04;;;;;;;7.05;4;;;;;;;6.15;78.52539;95169.78;;;;
2024/02/16 01:10:05;;;;;;;7.05;4;;;;;;;6.15;78.52539;95169.78;;;;
2024/02/16 01:11:07;;;;;;;7.05;4;;;;;;;6.15;78.52539;95169.78;;;;
2024/02/16 01:12:07;;;;;;;7.05;4;;;;;;;6.15;78.52539;95169.78;;;;
2024/02/16 01:13:08;;;;;;;7.05;4;;;;;;;6.15;78.52539;95169.78;;;;
2024/02/16 01:14:08;;;;;;;7.05;4;;;;;;;6.15;78.52539;95169.78;;;;
2024/02/16 01:15:09;;;;;;;7.05;4;;;;;;;6.15;78.52539;95169.78;;;;
2024/02/16 01:16:10;;;;;;;7.05;4;;;;;;;6.15;78.52539;95169.78;;;;
2024/02/16 01:17:10;;;;;;;7.05;4;;;;;;;6.15;78.52539;95169.78;;;;
2024/02/16 01:18:11;;;;;;;7.05;4;;;;;;;6.15;78.52539;95169.78;;;;
2024/02/16 01:19:12;;;;;;;7.05;4;;;;;;;6.15;78.52539;95169.78;;;;
2024/02/16 01:20:13;;;;;;;4.4;3.65;;;;;;;6.23;78.73926;95174.98;;;;
2024/02/16 01:21:13;;;;;;;4.4;3.65;;;;;;;6.23;78.73926;95174.98;;;;
2024/02/16 01:22:14;;;;;;;4.4;3.65;;;;;;;6.23;78.73926;95174.98;;;;
2024/02/16 01:23:14;;;;;;;4.4;3.65;;;;;;;6.23;78.73926;95174.98;;;;
2024/02/16 01:24:14;;;;;;;4.4;3.65;;;;;;;6.23;78.73926;95174.98;;;;
2024/02/16 01:25:15;;;;;;;4.4;3.65;;;;;;;6.23;78.73926;95174.98;;;;
2024/02/16 01:26:16;;;;;;;4.4;3.65;;;;;;;6.23;78.73926;95174.98;;;;
2024/02/16 01:27:16;;;;;;;4.4;3.65;;;;;;;6.23;78.73926;95174.98;;;;
2024/02/16 01:28:17;;;;;;;4.4;3.65;;;;;;;6.23;78.73926;95174.98;;;;
2024/02/16 01:29:17;;;;;;;4.4;3.65;;;;;;;6.23;78.73926;95174.98;;;;
2024/02/16 01:30:19;;;;;;;4.4;3.65;;;;;;;6.23;78.73926;95174.98;;;;
2024/02/16 01:31:20;;;;;;;5.95;3.900001;;;;;;;6.3;78.84863;95172.75;;;;
2024/02/16 01:32:20;;;;;;;5.95;3.900001;;;;;;;6.3;78.84863;95172.75;;;;
2024/02/16 01:33:21;;;;;;;5.95;3.900001;;;;;;;6.3;78.84863;95172.75;;;;
2024/02/16 01:34:21;;;;;;;5.95;3.900001;;;;;;;6.3;78.84863;95172.75;;;;
2024/02/16 01:35:22;;;;;;;5.95;3.900001;;;;;;;6.3;78.84863;95172.75;;;;
2024/02/16 01:36:22;;;;;;;5.95;3.900001;;;;;;;6.3;78.84863;95172.75;;;;
2024/02/16 01:37:23;;;;;;;5.95;3.900001;;;;;;;6.3;78.84863;95172.75;;;;
2024/02/16 01:38:24;;;;;;;5.95;3.900001;;;;;;;6.3;78.84863;95172.75;;;;
2024/02/16 01:39:24;;;;;;;5.95;3.900001;;;;;;;6.3;78.84863;95172.75;;;;
2024/02/16 01:40:26;;;;;;;5.95;3.900001;;;;;;;6.3;78.84863;95172.75;;;;
2024/02/16 01:41:26;;;;;;;7.649999;3.6;;;;;;;6.32;78.82031;95171.66;;;;
2024/02/16 01:42:26;;;;;;;7.649999;3.6;;;;;;;6.32;78.82031;95171.66;;;;
2024/02/16 01:43:27;;;;;;;7.649999;3.6;;;;;;;6.32;78.82031;95171.66;;;;
2024/02/16 01:44:27;;;;;;;7.649999;3.6;;;;;;;6.32;78.82031;95171.66;;;;
2024/02/16 01:45:28;;;;;;;7.649999;3.6;;;;;;;6.32;78.82031;95171.66;;;;
2024/02/16 01:46:28;;;;;;;7.649999;3.6;;;;;;;6.32;78.82031;95171.66;;;;
2024/02/16 01:47:29;;;;;;;7.649999;3.6;;;;;;;6.32;78.82031;95171.66;;;;
2024/02/16 01:48:30;;;;;;;7.649999;3.6;;;;;;;6.32;78.82031;95171.66;;;;
2024/02/16 01:49:31;;;;;;;7.649999;3.6;;;;;;;6.32;78.82031;95171.66;;;;
2024/02/16 01:50:33;;;;;;;7.649999;3.6;;;;;;;6.32;78.82031;95171.66;;;;
2024/02/16 01:51:33;;;;;;;7.649999;3.6;;;;;;;6.32;78.82031;95171.66;;;;
2024/02/16 01:52:36;;;;;;;5.700001;3.7;;;;;;;6.43;79.19141;95163.26;;;;
2024/02/16 01:53:37;;;;;;;5.700001;3.7;;;;;;;6.43;79.19141;95163.26;;;;
2024/02/16 01:54:38;;;;;;;5.700001;3.7;;;;;;;6.43;79.19141;95163.26;;;;
2024/02/16 01:55:39;;;;;;;5.700001;3.7;;;;;;;6.43;79.19141;95163.26;;;;
2024/02/16 01:56:39;;;;;;;5.700001;3.7;;;;;;;6.43;79.19141;95163.26;;;;
2024/02/16 01:57:40;;;;;;;5.700001;3.7;;;;;;;6.43;79.19141;95163.26;;;;
2024/02/16 01:58:43;;;;;;;5.700001;3.7;;;;;;;6.43;79.19141;95163.26;;;;
2024/02/16 01:59:45;;;;;;;5.700001;3.7;;;;;;;6.43;79.19141;95163.26;;;;
2024/02/16 02:00:46;;;;;;;5.700001;3.7;;;;;;;6.43;79.19141;95163.26;;;;
2024/02/16 02:01:46;;;;;;;5.700001;3.7;;;;;;;6.43;79.19141;95163.26;;;;
2024/02/16 02:02:47;;;;;;;4.200001;3.4;;;;;;;6.51;79.06738;95168.38;;;;
2024/02/16 02:03:48;;;;;;;4.200001;3.4;;;;;;;6.51;79.06738;95168.38;;;;
2024/02/16 02:04:48;;;;;;;4.200001;3.4;;;;;;;6.51;79.06738;95168.38;;;;
2024/02/16 02:05:50;;;;;;;4.200001;3.4;;;;;;;6.51;79.06738;95168.38;;;;
2024/02/16 02:06:51;;;;;;;4.200001;3.4;;;;;;;6.51;79.06738;95168.38;;;;
2024/02/16 02:07:52;;;;;;;4.200001;3.4;;;;;;;6.51;79.06738;95168.38;;;;
2024/02/16 02:08:53;;;;;;;4.200001;3.4;;;;;;;6.51;79.06738;95168.38;;;;
2024/02/16 02:09:54;;;;;;;4.200001;3.4;;;;;;;6.51;79.06738;95168.38;;;;
2024/02/16 02:10:55;;;;;;;4.200001;3.4;;;;;;;6.51;79.06738;95168.38;;;;
2024/02/16 02:11:55;;;;;;;4.200001;3.4;;;;;;;6.51;79.06738;95168.38;;;;
2024/02/16 02:12:56;;;;;;;4.200001;3.4;;;;;;;6.51;79.06738;95168.38;;;;
2024/02/16 02:13:56;;;;;;;5.65;3.25;;;;;;;6.51;79.43945;95160.1;;;;
2024/02/16 02:14:57;;;;;;;5.65;3.25;;;;;;;6.51;79.43945;95160.1;;;;
2024/02/16 02:15:58;;;;;;;5.65;3.25;;;;;;;6.51;79.43945;95160.1;;;;
2024/02/16 02:17:00;;;;;;;5.65;3.25;;;;;;;6.51;79.43945;95160.1;;;;
2024/02/16 02:18:01;;;;;;;5.65;3.25;;;;;;;6.51;79.43945;95160.1;;;;
2024/02/16 02:19:01;;;;;;;5.65;3.25;;;;;;;6.51;79.43945;95160.1;;;;
2024/02/16 02:20:03;;;;;;;5.65;3.25;;;;;;;6.51;79.43945;95160.1;;;;
2024/02/16 02:21:04;;;;;;;5.65;3.25;;;;;;;6.51;79.43945;95160.1;;;;
2024/02/16 02:22:05;;;;;;;5.65;3.25;;;;;;;6.51;79.43945;95160.1;;;;
2024/02/16 02:23:13;;;;;;;5.65;3.25;;;;;;;6.51;79.43945;95160.1;;;;
2024/02/16 02:24:13;;;;;;;4.55;3.25;;;;;;;6.58;79.65625;95154.78;;;;
2024/02/16 02:25:14;;;;;;;4.55;3.25;;;;;;;6.58;79.65625;95154.78;;;;
2024/02/16 02:26:16;;;;;;;4.55;3.25;;;;;;;6.58;79.65625;95154.78;;;;
2024/02/16 02:27:17;;;;;;;4.55;3.25;;;;;;;6.58;79.65625;95154.78;;;;
2024/02/16 02:28:17;;;;;;;4.55;3.25;;;;;;;6.58;79.65625;95154.78;;;;
2024/02/16 02:29:18;;;;;;;4.55;3.25;;;;;;;6.58;79.65625;95154.78;;;;
2024/02/16 02:30:18;;;;;;;4.55;3.25;;;;;;;6.58;79.65625;95154.78;;;;
2024/02/16 02:31:19;;;;;;;4.55;3.25;;;;;;;6.58;79.65625;95154.78;;;;
2024/02/16 02:32:19;;;;;;;4.55;3.25;;;;;;;6.58;79.65625;95154.78;;;;
2024/02/16 02:33:20;;;;;;;4.55;3.25;;;;;;;6.58;79.65625;95154.78;;;;
2024/02/16 02:34:20;;;;;;;4.55;3.25;;;;;;;6.58;79.65625;95154.78;;;;
2024/02/16 02:35:21;;;;;;;6.349999;4.45;;;;;;;6.57;80.0459;95147.09;;;;
2024/02/16 02:36:21;;;;;;;6.349999;4.45;;;;;;;6.57;80.0459;95147.09;;;;
2024/02/16 02:37:22;;;;;;;6.349999;4.45;;;;;;;6.57;80.0459;95147.09;;;;
2024/02/16 02:38:23;;;;;;;6.349999;4.45;;;;;;;6.57;80.0459;95147.09;;;;
2024/02/16 02:39:23;;;;;;;6.349999;4.45;;;;;;;6.57;80.0459;95147.09;;;;
2024/02/16 02:40:25;;;;;;;6.349999;4.45;;;;;;;6.57;80.0459;95147.09;;;;
2024/02/16 02:41:26;;;;;;;6.349999;4.45;;;;;;;6.57;80.0459;95147.09;;;;
2024/02/16 02:42:28;;;;;;;6.349999;4.45;;;;;;;6.57;80.0459;95147.09;;;;
2024/02/16 02:43:28;;;;;;;6.349999;4.45;;;;;;;6.57;80.0459;95147.09;;;;
2024/02/16 02:44:31;;;;;;;6.349999;4.45;;;;;;;6.57;80.0459;95147.09;;;;
2024/02/16 02:45:31;;;;;;;6.55;3.95;;;;;;;6.65;80.14453;95150.89;;;;
2024/02/16 02:46:32;;;;;;;6.55;3.95;;;;;;;6.65;80.14453;95150.89;;;;
2024/02/16 02:47:32;;;;;;;6.55;3.95;;;;;;;6.65;80.14453;95150.89;;;;
2024/02/16 02:48:33;;;;;;;6.55;3.95;;;;;;;6.65;80.14453;95150.89;;;;
2024/02/16 02:49:34;;;;;;;6.55;3.95;;;;;;;6.65;80.14453;95150.89;;;;
2024/02/16 02:50:35;;;;;;;6.55;3.95;;;;;;;6.65;80.14453;95150.89;;;;
2024/02/16 02:51:35;;;;;;;6.55;3.95;;;;;;;6.65;80.14453;95150.89;;;;
2024/02/16 02:52:36;;;;;;;6.55;3.95;;;;;;;6.65;80.14453;95150.89;;;;
2024/02/16 02:53:36;;;;;;;6.55;3.95;;;;;;;6.65;80.14453;95150.89;;;;
2024/02/16 02:54:37;;;;;;;6.55;3.95;;;;;;;6.65;80.14453;95150.89;;;;
2024/02/16 02:55:38;;;;;;;6.55;3.95;;;;;;;6.65;80.14453;95150.89;;;;
2024/02/16 02:56:38;;;;;;;5.199999;3.45;;;;;;;6.71;80.19043;95152.25;;;;
2024/02/16 02:57:38;;;;;;;5.199999;3.45;;;;;;;6.71;80.19043;95152.25;;;;
2024/02/16 02:58:39;;;;;;;5.199999;3.45;;;;;;;6.71;80.19043;95152.25;;;;
2024/02/16 02:59:39;;;;;;;5.199999;3.45;;;;;;;6.71;80.19043;95152.25;;;;
2024/02/16 03:00:41;;;;;;;5.199999;3.45;;;;;;;6.71;80.19043;95152.25;;;;
2024/02/16 03:01:41;;;;;;;5.199999;3.45;;;;;;;6.71;80.19043;95152.25;;;;
2024/02/16 03:02:43;;;;;;;5.199999;3.45;;;;;;;6.71;80.19043;95152.25;;;;
2024/02/16 03:03:44;;;;;;;5.199999;3.45;;;;;;;6.71;80.19043;95152.25;;;;
2024/02/16 03:04:44;;;;;;;5.199999;3.45;;;;;;;6.71;80.19043;95152.25;;;;
2024/02/16 03:05:45;;;;;;;5.199999;3.45;;;;;;;6.71;80.19043;95152.25;;;;
2024/02/16 03:06:45;;;;;;;5.199999;3.45;;;;;;;6.71;80.19043;95152.25;;;;
2024/02/16 03:07:46;;;;;;;6.55;3.7;;;;;;;6.78;80.42676;95156.24;;;;
2024/02/16 03:08:46;;;;;;;6.55;3.7;;;;;;;6.78;80.42676;95156.24;;;;
2024/02/16 03:09:47;;;;;;;6.55;3.7;;;;;;;6.78;80.42676;95156.24;;;;
2024/02/16 03:10:47;;;;;;;6.55;3.7;;;;;;;6.78;80.42676;95156.24;;;;
2024/02/16 03:11:48;;;;;;;6.55;3.7;;;;;;;6.78;80.42676;95156.24;;;;
2024/02/16 03:12:49;;;;;;;6.55;3.7;;;;;;;6.78;80.42676;95156.24;;;;
2024/02/16 03:13:50;;;;;;;6.55;3.7;;;;;;;6.78;80.42676;95156.24;;;;
2024/02/16 03:14:50;;;;;;;6.55;3.7;;;;;;;6.78;80.42676;95156.24;;;;
2024/02/16 03:15:52;;;;;;;6.55;3.7;;;;;;;6.78;80.42676;95156.24;;;;
2024/02/16 03:16:53;;;;;;;6.55;3.7;;;;;;;6.78;80.42676;95156.24;;;;
2024/02/16 03:17:54;;;;;;;5.15;3.400001;;;;;;;6.82;80.55273;95158.31;;;;
2024/02/16 03:18:54;;;;;;;5.15;3.400001;;;;;;;6.82;80.55273;95158.31;;;;
2024/02/16 03:19:55;;;;;;;5.15;3.400001;;;;;;;6.82;80.55273;95158.31;;;;
2024/02/16 03:20:55;;;;;;;5.15;3.400001;;;;;;;6.82;80.55273;95158.31;;;;
2024/02/16 03:21:56;;;;;;;5.15;3.400001;;;;;;;6.82;80.55273;95158.31;;;;
2024/02/16 03:22:56;;;;;;;5.15;3.400001;;;;;;;6.82;80.55273;95158.31;;;;
2024/02/16 03:23:57;;;;;;;5.15;3.400001;;;;;;;6.82;80.55273;95158.31;;;;
2024/02/16 03:24:57;;;;;;;5.15;3.400001;;;;;;;6.82;80.55273;95158.31;;;;
2024/02/16 03:25:58;;;;;;;5.15;3.400001;;;;;;;6.82;80.55273;95158.31;;;;
2024/02/16 03:26:58;;;;;;;5.15;3.400001;;;;;;;6.82;80.55273;95158.31;;;;
2024/02/16 03:28:00;;;;;;;5.15;3.400001;;;;;;;6.82;80.55273;95158.31;;;;
2024/02/16 03:29:01;;;;;;;6;3.400001;;;;;;;6.91;80.32324;95155.84;;;;
2024/02/16 03:30:02;;;;;;;6;3.400001;;;;;;;6.91;80.32324;95155.84;;;;
2024/02/16 03:31:04;;;;;;;6;3.400001;;;;;;;6.91;80.32324;95155.84;;;;
2024/02/16 03:32:05;;;;;;;6;3.400001;;;;;;;6.91;80.32324;95155.84;;;;
2024/02/16 03:33:05;;;;;;;6;3.400001;;;;;;;6.91;80.32324;95155.84;;;;
2024/02/16 03:34:06;;;;;;;6;3.400001;;;;;;;6.91;80.32324;95155.84;;;;
2024/02/16 03:35:06;;;;;;;6;3.400001;;;;;;;6.91;80.32324;95155.84;;;;
2024/02/16 03:36:07;;;;;;;6;3.400001;;;;;;;6.91;80.32324;95155.84;;;;
2024/02/16 03:37:09;;;;;;;6;3.400001;;;;;;;6.91;80.32324;95155.84;;;;
2024/02/16 03:38:10;;;;;;;6;3.400001;;;;;;;6.91;80.32324;95155.84;;;;
2024/02/16 03:39:10;;;;;;;5.699999;3.45;;;;;;;6.88;80.20996;95163.7;;;;
2024/02/16 03:40:12;;;;;;;5.699999;3.45;;;;;;;6.88;80.20996;95163.7;;;;
2024/02/16 03:41:14;;;;;;;5.699999;3.45;;;;;;;6.88;80.20996;95163.7;;;;
2024/02/16 03:42:15;;;;;;;5.699999;3.45;;;;;;;6.88;80.20996;95163.7;;;;
2024/02/16 03:43:16;;;;;;;5.699999;3.45;;;;;;;6.88;80.20996;95163.7;;;;
2024/02/16 03:44:16;;;;;;;5.699999;3.45;;;;;;;6.88;80.20996;95163.7;;;;
2024/02/16 03:45:17;;;;;;;5.699999;3.45;;;;;;;6.88;80.20996;95163.7;;;;
2024/02/16 03:46:18;;;;;;;5.699999;3.45;;;;;;;6.88;80.20996;95163.7;;;;
2024/02/16 03:47:18;;;;;;;5.699999;3.45;;;;;;;6.88;80.20996;95163.7;;;;
2024/02/16 03:48:19;;;;;;;5.699999;3.45;;;;;;;6.88;80.20996;95163.7;;;;
2024/02/16 03:49:19;;;;;;;5.699999;3.45;;;;;;;6.88;80.20996;95163.7;;;;
2024/02/16 03:50:20;;;;;;;5.6;3.35;;;;;;;6.88;80.1582;95160.17;;;;
2024/02/16 03:51:21;;;;;;;5.6;3.35;;;;;;;6.88;80.1582;95160.17;;;;
2024/02/16 03:52:22;;;;;;;5.6;3.35;;;;;;;6.88;80.1582;95160.17;;;;
2024/02/16 03:53:22;;;;;;;5.6;3.35;;;;;;;6.88;80.1582;95160.17;;;;
2024/02/16 03:54:23;;;;;;;5.6;3.35;;;;;;;6.88;80.1582;95160.17;;;;
2024/02/16 03:55:24;;;;;;;5.6;3.35;;;;;;;6.88;80.1582;95160.17;;;;
2024/02/16 03:56:24;;;;;;;5.6;3.35;;;;;;;6.88;80.1582;95160.17;;;;
2024/02/16 03:57:25;;;;;;;5.6;3.35;;;;;;;6.88;80.1582;95160.17;;;;
2024/02/16 03:58:26;;;;;;;5.6;3.35;;;;;;;6.88;80.1582;95160.17;;;;
2024/02/16 03:59:27;;;;;;;5.6;3.35;;;;;;;6.88;80.1582;95160.17;;;;
2024/02/16 04:00:27;;;;;;;4.05;3.1;;;;;;;6.89;80.11719;95167.03;;;;
2024/02/16 04:01:28;;;;;;;4.05;3.1;;;;;;;6.89;80.11719;95167.03;;;;
2024/02/16 04:02:28;;;;;;;4.05;3.1;;;;;;;6.89;80.11719;95167.03;;;;
2024/02/16 04:03:29;;;;;;;4.05;3.1;;;;;;;6.89;80.11719;95167.03;;;;
2024/02/16 04:04:29;;;;;;;4.05;3.1;;;;;;;6.89;80.11719;95167.03;;;;
2024/02/16 04:05:32;;;;;;;4.05;3.1;;;;;;;6.89;80.11719;95167.03;;;;
2024/02/16 04:06:33;;;;;;;4.05;3.1;;;;;;;6.89;80.11719;95167.03;;;;
2024/02/16 04:07:33;;;;;;;4.05;3.1;;;;;;;6.89;80.11719;95167.03;;;;
2024/02/16 04:08:34;;;;;;;4.05;3.1;;;;;;;6.89;80.11719;95167.03;;;;
2024/02/16 04:09:34;;;;;;;4.05;3.1;;;;;;;6.89;80.11719;95167.03;;;;
2024/02/16 04:10:35;;;;;;;4.05;3.1;;;;;;;6.89;80.11719;95167.03;;;;
2024/02/16 04:11:36;;;;;;;3.6;2.900001;;;;;;;6.88;80.16699;95180.36;;;;
2024/02/16 04:12:36;;;;;;;3.6;2.900001;;;;;;;6.88;80.16699;95180.36;;;;
2024/02/16 04:13:37;;;;;;;3.6;2.900001;;;;;;;6.88;80.16699;95180.36;;;;
2024/02/16 04:14:37;;;;;;;3.6;2.900001;;;;;;;6.88;80.16699;95180.36;;;;
2024/02/16 04:15:38;;;;;;;3.6;2.900001;;;;;;;6.88;80.16699;95180.36;;;;
2024/02/16 04:16:38;;;;;;;3.6;2.900001;;;;;;;6.88;80.16699;95180.36;;;;
2024/02/16 04:17:38;;;;;;;3.6;2.900001;;;;;;;6.88;80.16699;95180.36;;;;
2024/02/16 04:18:39;;;;;;;3.6;2.900001;;;;;;;6.88;80.16699;95180.36;;;;
2024/02/16 04:19:39;;;;;;;3.6;2.900001;;;;;;;6.88;80.16699;95180.36;;;;
2024/02/16 04:20:41;;;;;;;3.6;2.900001;;;;;;;6.88;80.16699;95180.36;;;;
2024/02/16 04:21:41;;;;;;;3.6;2.900001;;;;;;;6.88;80.16699;95180.36;;;;
2024/02/16 04:22:42;;;;;;;4.05;2.95;;;;;;;6.86;80.46191;95184.09;;;;
2024/02/16 04:23:43;;;;;;;4.05;2.95;;;;;;;6.86;80.46191;95184.09;;;;
2024/02/16 04:24:43;;;;;;;4.05;2.95;;;;;;;6.86;80.46191;95184.09;;;;
2024/02/16 04:25:44;;;;;;;4.05;2.95;;;;;;;6.86;80.46191;95184.09;;;;
2024/02/16 04:26:44;;;;;;;4.05;2.95;;;;;;;6.86;80.46191;95184.09;;;;
2024/02/16 04:27:45;;;;;;;4.05;2.95;;;;;;;6.86;80.46191;95184.09;;;;
2024/02/16 04:28:45;;;;;;;4.05;2.95;;;;;;;6.86;80.46191;95184.09;;;;
2024/02/16 04:29:46;;;;;;;4.05;2.95;;;;;;;6.86;80.46191;95184.09;;;;
2024/02/16 04:30:46;;;;;;;4.05;2.95;;;;;;;6.86;80.46191;95184.09;;;;
2024/02/16 04:31:47;;;;;;;4.05;2.95;;;;;;;6.86;80.46191;95184.09;;;;
2024/02/16 04:32:48;;;;;;;3.05;2.6;;;;;;;6.91;80.64453;95186.46;;;;
2024/02/16 04:33:48;;;;;;;3.05;2.6;;;;;;;6.91;80.64453;95186.46;;;;
2024/02/16 04:34:49;;;;;;;3.05;2.6;;;;;;;6.91;80.64453;95186.46;;;;
2024/02/16 04:35:50;;;;;;;3.05;2.6;;;;;;;6.91;80.64453;95186.46;;;;
2024/02/16 04:36:50;;;;;;;3.05;2.6;;;;;;;6.91;80.64453;95186.46;;;;
2024/02/16 04:37:51;;;;;;;3.05;2.6;;;;;;;6.91;80.64453;95186.46;;;;
2024/02/16 04:38:51;;;;;;;3.05;2.6;;;;;;;6.91;80.64453;95186.46;;;;
2024/02/16 04:39:52;;;;;;;3.05;2.6;;;;;;;6.91;80.64453;95186.46;;;;
2024/02/16 04:40:52;;;;;;;3.05;2.6;;;;;;;6.91;80.64453;95186.46;;;;
2024/02/16 04:41:53;;;;;;;3.05;2.6;;;;;;;6.91;80.64453;95186.46;;;;
2024/02/16 04:42:53;;;;;;;3.05;2.6;;;;;;;6.91;80.64453;95186.46;;;;
2024/02/16 04:43:54;;;;;;;3.05;2.6;;;;;;;6.91;80.64453;95186.46;;;;
2024/02/16 04:44:54;;;;;;;3.05;2.6;;;;;;;6.91;80.64453;95186.46;;;;
2024/02/16 04:45:55;;;;;;;3.05;2.6;;;;;;;6.91;80.64453;95186.46;;;;
2024/02/16 04:46:55;;;;;;;3.05;2.6;;;;;;;6.91;80.64453;95186.46;;;;
2024/02/16 04:47:56;;;;;;;3.05;2.6;;;;;;;6.91;80.64453;95186.46;;;;
2024/02/16 04:48:56;;;;;;;3.05;2.6;;;;;;;6.91;80.64453;95186.46;;;;
2024/02/16 04:49:57;;;;;;;3.05;2.6;;;;;;;6.91;80.64453;95186.46;;;;
2024/02/16 04:50:58;;;;;;;3.05;2.6;;;;;;;6.91;80.64453;95186.46;;;;
2024/02/16 04:51:58;;;;;;;3.05;2.6;;;;;;;6.91;80.64453;95186.46;;;;
2024/02/16 04:52:59;;;;;;;3.05;2.6;;;;;;;6.91;80.64453;95186.46;;;;
2024/02/16 04:53:59;;;;;;;3.05;2.6;;;;;;;6.91;80.64453;95186.46;;;;
2024/02/16 04:55:00;;;;;;;3.85;2.8;;;;;;;7.23;81.37305;95194.64;;;;
2024/02/16 04:56:02;;;;;;;3.85;2.8;;;;;;;7.23;81.37305;95194.64;;;;
2024/02/16 04:57:02;;;;;;;3.85;2.8;;;;;;;7.23;81.37305;95194.64;;;;
2024/02/16 04:58:08;;;;;;;3.85;2.8;;;;;;;7.23;81.37305;95194.64;;;;
2024/02/16 04:59:09;;;;;;;3.85;2.8;;;;;;;7.23;81.37305;95194.64;;;;
2024/02/16 05:00:09;;;;;;;3.85;2.8;;;;;;;7.23;81.37305;95194.64;;;;
2024/02/16 05:01:11;;;;;;;3.85;2.8;;;;;;;7.23;81.37305;95194.64;;;;
2024/02/16 05:02:13;;;;;;;3.85;2.8;;;;;;;7.23;81.37305;95194.64;;;;
2024/02/16 05:03:14;;;;;;;3.85;2.8;;;;;;;7.23;81.37305;95194.64;;;;
2024/02/16 05:04:16;;;;;;;3.85;2.8;;;;;;;7.23;81.37305;95194.64;;;;
2024/02/16 05:05:17;;;;;;;3.3;2.3;;;;;;;7.37;81.21973;95185.85;;;;
2024/02/16 05:06:18;;;;;;;3.3;2.3;;;;;;;7.37;81.21973;95185.85;;;;
2024/02/16 05:07:19;;;;;;;3.3;2.3;;;;;;;7.37;81.21973;95185.85;;;;
2024/02/16 05:08:20;;;;;;;3.3;2.3;;;;;;;7.37;81.21973;95185.85;;;;
2024/02/16 05:09:23;;;;;;;3.3;2.3;;;;;;;7.37;81.21973;95185.85;;;;
2024/02/16 05:10:24;;;;;;;3.3;2.3;;;;;;;7.37;81.21973;95185.85;;;;
2024/02/16 05:11:24;;;;;;;3.3;2.3;;;;;;;7.37;81.21973;95185.85;;;;
2024/02/16 05:12:26;;;;;;;3.3;2.3;;;;;;;7.37;81.21973;95185.85;;;;
2024/02/16 05:13:26;;;;;;;3.3;2.3;;;;;;;7.37;81.21973;95185.85;;;;
2024/02/16 05:14:27;;;;;;;3.3;2.3;;;;;;;7.37;81.21973;95185.85;;;;
2024/02/16 05:15:28;;;;;;;3.3;2.3;;;;;;;7.37;81.21973;95185.85;;;;
2024/02/16 05:16:28;;;;;;;2.65;2.45;;;;;;;7.49;81.21973;95183.45;;;;
2024/02/16 05:17:29;;;;;;;2.65;2.45;;;;;;;7.49;81.21973;95183.45;;;;
2024/02/16 05:18:29;;;;;;;2.65;2.45;;;;;;;7.49;81.21973;95183.45;;;;
2024/02/16 05:19:30;;;;;;;2.65;2.45;;;;;;;7.49;81.21973;95183.45;;;;
2024/02/16 05:20:32;;;;;;;2.65;2.45;;;;;;;7.49;81.21973;95183.45;;;;
2024/02/16 05:21:33;;;;;;;2.65;2.45;;;;;;;7.49;81.21973;95183.45;;;;
2024/02/16 05:22:34;;;;;;;2.65;2.45;;;;;;;7.49;81.21973;95183.45;;;;
2024/02/16 05:23:34;;;;;;;2.65;2.45;;;;;;;7.49;81.21973;95183.45;;;;
2024/02/16 05:24:35;;;;;;;2.65;2.45;;;;;;;7.49;81.21973;95183.45;;;;
2024/02/16 05:25:35;;;;;;;2.65;2.45;;;;;;;7.49;81.21973;95183.45;;;;
2024/02/16 05:26:36;;;;;;;4.65;2.6;;;;;;;7.62;81.27637;95189.18;;;;
2024/02/16 05:27:37;;;;;;;4.65;2.6;;;;;;;7.62;81.27637;95189.18;;;;
2024/02/16 05:28:38;;;;;;;4.65;2.6;;;;;;;7.62;81.27637;95189.18;;;;
2024/02/16 05:29:39;;;;;;;4.65;2.6;;;;;;;7.62;81.27637;95189.18;;;;
2024/02/16 05:30:40;;;;;;;4.65;2.6;;;;;;;7.62;81.27637;95189.18;;;;
2024/02/16 05:31:40;;;;;;;4.65;2.6;;;;;;;7.62;81.27637;95189.18;;;;
2024/02/16 05:32:41;;;;;;;4.65;2.6;;;;;;;7.62;81.27637;95189.18;;;;
2024/02/16 05:33:42;;;;;;;4.65;2.6;;;;;;;7.62;81.27637;95189.18;;;;
2024/02/16 05:34:43;;;;;;;4.65;2.6;;;;;;;7.62;81.27637;95189.18;;;;
2024/02/16 05:35:49;;;;;;;4.65;2.6;;;;;;;7.62;81.27637;95189.18;;;;
2024/02/16 05:36:50;;;;;;;4.65;2.6;;;;;;;7.62;81.27637;95189.18;;;;
2024/02/16 05:37:51;;;;;;;3.9;2.55;;;;;;;7.69;81.15039;95188.71;;;;
2024/02/16 05:38:54;;;;;;;3.9;2.55;;;;;;;7.69;81.15039;95188.71;;;;
2024/02/16 05:40:07;;;;;;;3.9;2.55;;;;;;;7.69;81.15039;95188.71;;;;
2024/02/16 05:41:08;;;;;;;3.9;2.55;;;;;;;7.69;81.15039;95188.71;;;;
2024/02/16 05:42:09;;;;;;;3.9;2.55;;;;;;;7.69;81.15039;95188.71;;;;
2024/02/16 05:43:10;;;;;;;3.9;2.55;;;;;;;7.69;81.15039;95188.71;;;;
2024/02/16 05:44:10;;;;;;;3.9;2.55;;;;;;;7.69;81.15039;95188.71;;;;
2024/02/16 05:45:11;;;;;;;3.9;2.55;;;;;;;7.69;81.15039;95188.71;;;;
2024/02/16 05:46:11;;;;;;;3.9;2.55;;;;;;;7.69;81.15039;95188.71;;;;
2024/02/16 05:47:13;;;;;;;3.9;2.55;;;;;;;7.69;81.15039;95188.71;;;;
2024/02/16 05:48:13;;;;;;;4.35;2.5;;;;;;;7.71;81.30469;95193.69;;;;